createdAt,value
2023-04-15T00:00:57.832Z,99788.41
2023-04-15T00:03:25.577Z,99783.75
2023-04-15T00:05:53.032Z,99781.66
2023-04-15T00:08:20.199Z,99786.22
2023-04-15T00:10:48.824Z,99783.53
2023-04-15T00:13:16.089Z,99777.44
2023-04-15T00:15:43.629Z,99784.66
2023-04-15T00:18:10.833Z,99781.91
2023-04-15T00:20:38.088Z,99778.34
2023-04-15T00:23:05.382Z,99776.34
2023-04-15T00:25:32.872Z,99769.25
2023-04-15T00:28:01.534Z,99775.91
2023-04-15T00:30:28.863Z,99769.56
2023-04-15T00:32:56.179Z,99760.81
2023-04-15T00:35:23.539Z,99769.47
2023-04-15T00:37:51.369Z,99764.81
2023-04-15T00:40:21.439Z,99767.94
2023-04-15T00:42:48.669Z,99769.25
2023-04-15T00:45:17.358Z,99760.19
2023-04-15T00:47:44.829Z,99765.91
2023-04-15T00:50:12.867Z,99760.81
2023-04-15T00:52:40.452Z,99751.06
2023-04-15T00:55:09.047Z,99755.38
2023-04-15T00:57:36.761Z,99753.84
2023-04-15T01:00:08.065Z,99743.97
2023-04-15T01:02:36.972Z,99738.75
2023-04-15T01:05:04.845Z,99732.09
2023-04-15T01:07:32.395Z,99736.53
2023-04-15T01:09:59.951Z,99730.00
2023-04-15T01:12:27.797Z,99731.66
2023-04-15T01:14:55.731Z,99730.00
2023-04-15T01:17:24.213Z,99730.09
2023-04-15T01:19:53.007Z,99722.13
2023-04-15T01:22:20.565Z,99727.00
2023-04-15T01:24:54.900Z,99730.09
2023-04-15T01:27:23.755Z,99726.66
2023-04-15T01:29:51.339Z,99730.44
2023-04-15T01:32:18.619Z,99724.03
2023-04-15T01:34:45.857Z,99726.13
2023-04-15T01:37:13.114Z,99723.91
2023-04-15T01:39:40.322Z,99726.03
2023-04-15T01:42:07.847Z,99732.78
2023-04-15T01:44:36.402Z,99729.78
2023-04-15T01:47:03.701Z,99731.56
2023-04-15T01:49:31.008Z,99733.44
2023-04-15T01:51:58.265Z,99735.88
2023-04-15T01:54:25.458Z,99733.78
2023-04-15T01:56:52.863Z,99726.03
2023-04-15T01:59:20.123Z,99726.59
2023-04-15T02:01:49.043Z,99733.91
2023-04-15T02:04:16.349Z,99734.56
2023-04-15T02:06:43.723Z,99738.13
2023-04-15T02:09:10.956Z,99740.22
2023-04-15T02:11:38.300Z,99747.63
2023-04-15T02:14:05.685Z,99746.88
2023-04-15T02:16:33.615Z,99747.75
2023-04-15T02:19:02.524Z,99740.78
2023-04-15T02:21:30.719Z,99743.31
2023-04-15T02:23:57.950Z,99747.22
2023-04-15T02:26:25.390Z,99743.88
2023-04-15T02:28:54.884Z,99741.56
2023-04-15T02:31:22.264Z,99748.41
2023-04-15T02:33:49.545Z,99743.00
2023-04-15T02:36:18.240Z,99733.47
2023-04-15T02:38:45.447Z,99744.78
2023-04-15T02:41:14.742Z,99741.13
2023-04-15T02:43:42.652Z,99750.53
2023-04-15T02:46:10.317Z,99753.09
2023-04-15T02:48:38.805Z,99753.41
2023-04-15T02:51:16.219Z,99759.28
2023-04-15T02:53:44.964Z,99751.63
2023-04-15T02:56:12.601Z,99761.06
2023-04-15T02:58:40.994Z,99760.06
2023-04-15T03:01:08.315Z,99762.50
2023-04-15T03:03:36.104Z,99749.44
2023-04-15T03:06:03.553Z,99748.97
2023-04-15T03:08:30.987Z,99752.94
2023-04-15T03:11:00.038Z,99747.84
2023-04-15T03:13:28.298Z,99754.94
2023-04-15T03:15:57.578Z,99748.66
2023-04-15T03:18:25.065Z,99758.28
2023-04-15T03:20:52.272Z,99746.97
2023-04-15T03:23:19.987Z,99751.19
2023-04-15T03:25:47.319Z,99744.19
2023-04-15T03:28:16.837Z,99750.19
2023-04-15T03:30:44.297Z,99740.53
2023-04-15T03:33:11.771Z,99737.84
2023-04-15T03:35:39.528Z,99744.88
2023-04-15T03:38:06.723Z,99743.63
2023-04-15T03:40:34.075Z,99738.09
2023-04-15T03:43:01.287Z,99737.53
2023-04-15T03:45:30.204Z,99742.53
2023-04-15T03:48:03.706Z,99748.59
2023-04-15T03:50:43.166Z,99746.72
2023-04-15T03:53:10.402Z,99737.09
2023-04-15T03:55:37.576Z,99744.06
2023-04-15T03:58:04.825Z,99748.94
2023-04-15T04:00:33.462Z,99744.97
2023-04-15T04:03:00.890Z,99751.03
2023-04-15T04:05:28.249Z,99743.41
2023-04-15T04:07:55.653Z,99741.84
2023-04-15T04:10:23.025Z,99735.97
2023-04-15T04:12:50.236Z,99740.63
2023-04-15T04:15:17.662Z,99741.53
2023-04-15T04:17:46.292Z,99745.38
2023-04-15T04:20:13.602Z,99746.38
2023-04-15T04:22:41.293Z,99757.34
2023-04-15T04:25:09.521Z,99746.94
2023-04-15T04:27:37.052Z,99749.81
2023-04-15T04:30:05.256Z,99754.25
2023-04-15T04:32:32.466Z,99750.72
2023-04-15T04:35:01.152Z,99749.81
2023-04-15T04:37:28.381Z,99759.69
2023-04-15T04:39:55.686Z,99753.34
2023-04-15T04:42:23.125Z,99761.88
2023-04-15T04:44:50.354Z,99750.03
2023-04-15T04:47:17.561Z,99754.91
2023-04-15T04:49:44.835Z,99758.78
2023-04-15T04:52:13.431Z,99750.50
2023-04-15T04:54:40.663Z,99757.25
2023-04-15T04:57:07.889Z,99750.28
2023-04-15T04:59:35.108Z,99758.78
2023-04-15T05:02:02.466Z,99764.44
2023-04-15T05:04:29.805Z,99756.69
2023-04-15T05:06:56.962Z,99765.78
2023-04-15T05:09:25.652Z,99768.22
2023-04-15T05:11:52.930Z,99775.09
2023-04-15T05:14:21.155Z,99775.53
2023-04-15T05:16:50.562Z,99778.88
2023-04-15T05:19:18.146Z,99789.31
2023-04-15T05:21:45.373Z,99799.06
2023-04-15T05:24:12.618Z,99804.16
2023-04-15T05:26:42.420Z,99803.69
2023-04-15T05:29:10.478Z,99810.69
2023-04-15T05:31:38.190Z,99809.91
2023-04-15T05:34:05.591Z,99820.03
2023-04-15T05:36:32.867Z,99843.84
2023-04-15T05:39:00.463Z,99852.63
2023-04-15T05:41:27.990Z,99868.00
2023-04-15T05:43:56.703Z,99870.69
2023-04-15T05:46:24.080Z,99877.78
2023-04-15T05:48:51.388Z,99897.50
2023-04-15T05:51:18.633Z,99902.84
2023-04-15T05:53:46.181Z,99914.81
2023-04-15T05:56:13.460Z,99917.94
2023-04-15T05:58:40.755Z,99934.56
2023-04-15T06:01:09.412Z,99941.75
2023-04-15T06:03:36.931Z,99971.94
2023-04-15T06:06:04.490Z,99983.25
2023-04-15T06:08:31.864Z,100017.53
2023-04-15T06:10:59.252Z,100042.38
2023-04-15T06:13:26.554Z,100070.56
2023-04-15T06:15:53.820Z,100066.56
2023-04-15T06:18:22.567Z,100063.25
2023-04-15T06:20:49.882Z,100096.75
2023-04-15T06:23:17.130Z,100120.75
2023-04-15T06:25:44.652Z,100121.28
2023-04-15T06:28:12.089Z,100143.81
2023-04-15T06:30:39.308Z,100159.91
2023-04-15T06:33:06.645Z,100184.88
2023-04-15T06:35:35.239Z,100198.66
2023-04-15T06:38:02.647Z,100210.38
2023-04-15T06:40:29.966Z,100218.63
2023-04-15T06:42:57.470Z,100243.69
2023-04-15T06:45:24.921Z,100256.31
2023-04-15T06:47:52.312Z,100271.66
2023-04-15T06:50:19.565Z,100288.75
2023-04-15T06:52:48.223Z,100318.75
2023-04-15T06:55:15.599Z,100345.59
2023-04-15T06:57:43.054Z,100362.69
2023-04-15T07:00:11.688Z,100389.13
2023-04-15T07:02:39.252Z,100424.53
2023-04-15T07:05:07.383Z,100439.94
2023-04-15T07:07:34.856Z,100484.69
2023-04-15T07:10:03.847Z,100510.69
2023-04-15T07:12:31.194Z,100553.81
2023-04-15T07:14:58.417Z,100584.56
2023-04-15T07:17:25.797Z,100635.09
2023-04-15T07:19:53.008Z,100687.50
2023-04-15T07:22:20.297Z,100725.25
2023-04-15T07:24:47.572Z,100766.03
2023-04-15T07:27:16.211Z,100822.59
2023-04-15T07:29:43.480Z,100858.00
2023-04-15T07:32:10.865Z,100973.06
2023-04-15T07:34:38.081Z,101042.72
2023-04-15T07:37:05.400Z,101070.44
2023-04-15T07:39:32.596Z,101116.81
2023-04-15T07:41:59.828Z,101139.03
2023-04-15T07:44:28.678Z,101181.84
2023-04-15T07:46:56.324Z,101232.25
2023-04-15T07:49:23.704Z,101251.28
2023-04-15T07:51:50.918Z,101278.16
2023-04-15T07:54:18.126Z,101307.16
2023-04-15T07:56:45.422Z,101328.16
2023-04-15T07:59:12.571Z,101350.69
2023-04-15T08:01:41.161Z,101379.28
2023-04-15T08:04:08.462Z,101402.63
2023-04-15T08:06:35.989Z,101432.00
2023-04-15T08:09:03.635Z,101463.03
2023-04-15T08:11:31.271Z,101491.19
2023-04-15T08:13:58.545Z,101511.38
2023-04-15T08:16:27.003Z,101530.44
2023-04-15T08:18:56.450Z,101553.81
2023-04-15T08:21:24.328Z,101587.53
2023-04-15T08:23:52.924Z,101605.84
2023-04-15T08:26:21.343Z,101640.75
2023-04-15T08:28:49.603Z,101648.28
2023-04-15T08:31:18.105Z,101673.69
2023-04-15T08:33:46.042Z,101693.13
2023-04-15T08:36:14.693Z,101698.72
2023-04-15T08:38:42.209Z,101720.47
2023-04-15T08:41:17.681Z,101729.19
2023-04-15T08:43:51.736Z,101742.69
2023-04-15T08:46:20.584Z,101754.97
2023-04-15T08:48:48.578Z,101760.94
2023-04-15T08:51:17.748Z,101775.25
2023-04-15T08:53:45.345Z,101795.91
2023-04-15T08:56:13.782Z,101803.84
2023-04-15T08:58:41.425Z,101817.69
2023-04-15T09:01:09.415Z,101830.41
2023-04-15T09:03:37.431Z,101847.91
2023-04-15T09:06:05.266Z,101867.75
2023-04-15T09:08:34.090Z,101879.63
2023-04-15T09:11:01.804Z,101895.94
2023-04-15T09:13:29.363Z,101915.38
2023-04-15T09:15:56.698Z,101924.50
2023-04-15T09:18:28.257Z,101932.03
2023-04-15T09:20:55.759Z,101937.97
2023-04-15T09:23:23.178Z,101944.75
2023-04-15T09:25:51.856Z,101936.41
2023-04-15T09:28:24.784Z,101944.75
2023-04-15T09:30:55.226Z,101940.75
2023-04-15T09:33:22.481Z,101943.91
2023-04-15T09:36:01.083Z,101945.88
2023-04-15T09:38:28.393Z,101945.53
2023-04-15T09:40:57.998Z,101953.44
2023-04-15T09:43:38.178Z,101956.22
2023-04-15T09:46:05.674Z,101966.13
2023-04-15T09:48:32.995Z,101959.78
2023-04-15T09:51:01.959Z,101959.78
2023-04-15T09:53:31.615Z,101947.88
2023-04-15T09:56:01.360Z,101942.72
2023-04-15T09:58:30.526Z,101938.31
2023-04-15T10:00:59.507Z,101938.72
2023-04-15T10:03:28.845Z,101944.66
2023-04-15T10:05:59.003Z,101950.63
2023-04-15T10:08:29.034Z,101938.28
2023-04-15T10:10:56.835Z,101935.91
2023-04-15T10:13:29.697Z,101915.19
2023-04-15T10:16:05.207Z,101904.88
2023-04-15T10:18:35.441Z,101885.81
2023-04-15T10:21:02.626Z,101861.13
2023-04-15T10:23:30.378Z,101860.25
2023-04-15T10:25:58.725Z,101836.34
2023-04-15T10:28:27.823Z,101804.13
2023-04-15T10:30:56.110Z,101764.84
2023-04-15T10:33:24.559Z,101736.25
2023-04-15T10:35:54.141Z,101723.88
2023-04-15T10:38:35.634Z,101700.41
2023-04-15T10:41:19.485Z,101675.38
2023-04-15T10:43:50.954Z,101627.31
2023-04-15T10:46:19.991Z,101616.13
2023-04-15T10:48:48.744Z,101587.91
2023-04-15T10:51:16.118Z,101561.66
2023-04-15T10:53:43.392Z,101519.88
2023-04-15T10:56:10.747Z,101479.41
2023-04-15T10:58:42.417Z,101426.19
2023-04-15T11:01:11.090Z,101370.56
2023-04-15T11:03:39.823Z,101309.31
2023-04-15T11:06:09.217Z,101237.09
2023-04-15T11:08:57.099Z,101085.44
2023-04-15T11:12:03.417Z,100933.38
2023-04-15T11:14:32.605Z,100836.53
2023-04-15T11:17:01.310Z,100769.59
2023-04-15T11:19:36.395Z,100710.66
2023-04-15T11:22:07.839Z,100659.97
2023-04-15T11:24:35.267Z,100633.38
2023-04-15T11:27:02.675Z,100598.69
2023-04-15T11:29:30.435Z,100583.13
2023-04-15T11:32:06.424Z,100547.50
2023-04-15T11:34:35.628Z,100556.66
2023-04-15T11:37:04.650Z,100534.84
2023-04-15T11:39:32.300Z,100520.03
2023-04-15T11:41:59.490Z,100527.72
2023-04-15T11:44:26.801Z,100533.28
2023-04-15T11:46:55.409Z,100545.75
2023-04-15T11:49:30.991Z,100546.25
2023-04-15T11:51:58.333Z,100540.88
2023-04-15T11:54:25.736Z,100535.72
2023-04-15T11:56:53.069Z,100551.13
2023-04-15T11:59:20.422Z,100550.25
2023-04-15T12:01:47.760Z,100557.97
2023-04-15T12:04:16.890Z,100545.38
2023-04-15T12:06:45.965Z,100546.69
2023-04-15T12:09:14.286Z,100535.38
2023-04-15T12:11:43.948Z,100525.53
2023-04-15T12:14:16.408Z,100518.44
2023-04-15T12:16:48.602Z,100528.56
2023-04-15T12:19:22.756Z,100528.34
2023-04-15T12:21:53.369Z,100518.59
2023-04-15T12:24:22.026Z,100509.34
2023-04-15T12:26:51.424Z,100513.88
2023-04-15T12:29:19.788Z,100505.09
2023-04-15T12:31:51.961Z,100484.81
2023-04-15T12:34:27.128Z,100481.03
2023-04-15T12:36:56.993Z,100475.47
2023-04-15T12:39:24.651Z,100453.97
2023-04-15T12:41:52.062Z,100436.94
2023-04-15T12:44:19.763Z,100442.28
2023-04-15T12:46:47.116Z,100426.88
2023-04-15T12:49:14.380Z,100420.19
2023-04-15T12:51:42.105Z,100438.91
2023-04-15T12:54:11.305Z,100402.09
2023-04-15T12:56:39.199Z,100365.84
2023-04-15T12:59:06.515Z,100354.84
2023-04-15T13:01:33.798Z,100341.03
2023-04-15T13:04:01.366Z,100329.41
2023-04-15T13:06:29.472Z,100293.53
2023-04-15T13:08:58.681Z,100284.69
2023-04-15T13:11:28.225Z,100262.72
2023-04-15T13:13:55.496Z,100222.91
2023-04-15T13:16:22.794Z,100241.75
2023-04-15T13:18:50.654Z,100226.63
2023-04-15T13:21:19.869Z,100201.69
2023-04-15T13:23:48.487Z,100171.75
2023-04-15T13:26:15.678Z,100150.53
2023-04-15T13:28:44.542Z,100074.03
2023-04-15T13:31:13.078Z,100007.59
2023-04-15T13:33:40.451Z,99922.66
2023-04-15T13:36:08.513Z,99864.47
2023-04-15T13:38:35.733Z,99847.38
2023-04-15T13:41:03.090Z,99852.00
2023-04-15T13:43:30.337Z,99841.72
2023-04-15T13:45:58.984Z,99848.72
2023-04-15T13:48:26.196Z,99875.59
2023-04-15T13:50:53.456Z,99892.56
2023-04-15T13:53:20.648Z,99917.47
2023-04-15T13:56:01.402Z,99915.16
2023-04-15T13:58:28.587Z,99914.72
2023-04-15T14:00:55.902Z,99923.66
2023-04-15T14:03:24.707Z,99919.50
2023-04-15T14:05:52.197Z,99925.78
2023-04-15T14:08:19.413Z,99939.44
2023-04-15T14:10:46.757Z,99931.34
2023-04-15T14:13:13.982Z,99953.53
2023-04-15T14:15:41.579Z,99943.91
2023-04-15T14:18:08.824Z,99949.53
2023-04-15T14:20:37.573Z,99938.41
2023-04-15T14:23:05.101Z,99995.56
2023-04-15T14:25:34.034Z,100026.69
2023-04-15T14:28:01.367Z,100057.38
2023-04-15T14:30:28.640Z,100043.66
2023-04-15T14:32:56.544Z,100018.56
2023-04-15T14:35:24.024Z,100120.09
2023-04-15T14:37:52.990Z,100162.47
2023-04-15T14:40:20.493Z,100136.34
2023-04-15T14:42:48.179Z,100085.03
2023-04-15T14:45:15.679Z,100062.66
2023-04-15T14:47:43.108Z,100078.19
2023-04-15T14:50:10.914Z,100093.38
2023-04-15T14:52:38.325Z,100112.75
2023-04-15T14:55:09.173Z,100137.28
2023-04-15T14:57:37.153Z,100124.19
2023-04-15T15:00:08.346Z,100095.06
2023-04-15T15:02:39.268Z,100073.59
2023-04-15T15:05:08.888Z,100083.19
2023-04-15T15:07:36.559Z,100103.84
2023-04-15T15:10:04.488Z,100157.69
2023-04-15T15:12:33.944Z,100192.09
2023-04-15T15:15:06.895Z,100199.28
2023-04-15T15:17:37.080Z,100188.53
2023-04-15T15:20:05.653Z,100152.00
2023-04-15T15:22:32.937Z,100118.34
2023-04-15T15:25:00.490Z,100102.88
2023-04-15T15:27:28.067Z,100090.47
2023-04-15T15:29:58.271Z,100081.88
2023-04-15T15:32:25.880Z,100072.41
2023-04-15T15:34:53.250Z,100062.31
2023-04-15T15:37:20.673Z,100066.19
2023-04-15T15:39:48.112Z,100066.28
2023-04-15T15:42:15.343Z,100064.03
2023-04-15T15:44:42.547Z,100072.47
2023-04-15T15:47:11.723Z,100082.97
2023-04-15T15:49:39.876Z,100102.31
2023-04-15T15:52:07.310Z,100094.78
2023-04-15T15:54:34.562Z,100102.31
2023-04-15T15:57:01.915Z,100094.28
2023-04-15T15:59:29.478Z,100095.94
2023-04-15T16:01:56.907Z,100098.16
2023-04-15T16:04:25.844Z,100101.16
2023-04-15T16:06:53.686Z,100106.72
2023-04-15T16:09:20.956Z,100100.47
2023-04-15T16:11:48.366Z,100101.91
2023-04-15T16:14:15.599Z,100097.53
2023-04-15T16:16:42.999Z,100090.28
2023-04-15T16:19:10.327Z,100095.50
2023-04-15T16:21:38.953Z,100107.09
2023-04-15T16:24:06.794Z,100142.81
2023-04-15T16:26:34.067Z,100176.13
2023-04-15T16:29:01.852Z,100198.31
2023-04-15T16:31:29.924Z,100222.19
2023-04-15T16:33:57.535Z,100243.72
2023-04-15T16:36:24.853Z,100253.72
2023-04-15T16:38:53.493Z,100249.09
2023-04-15T16:41:20.973Z,100245.16
2023-04-15T16:43:48.228Z,100258.84
2023-04-15T16:46:15.752Z,100263.75
2023-04-15T16:48:43.068Z,100256.72
2023-04-15T16:51:10.303Z,100259.69
2023-04-15T16:53:37.808Z,100262.78
2023-04-15T16:56:06.903Z,100259.66
2023-04-15T16:58:34.060Z,100258.25
2023-04-15T17:01:01.526Z,100263.06
2023-04-15T17:03:29.119Z,100265.13
2023-04-15T17:05:57.028Z,100273.00
2023-04-15T17:08:24.240Z,100275.25
2023-04-15T17:10:51.705Z,100283.78
2023-04-15T17:13:20.348Z,100283.66
2023-04-15T17:15:47.656Z,100283.69
2023-04-15T17:18:14.973Z,100272.63
2023-04-15T17:20:42.393Z,100278.09
2023-04-15T17:23:09.565Z,100277.47
2023-04-15T17:25:37.671Z,100280.28
2023-04-15T17:28:04.986Z,100277.47
2023-04-15T17:30:34.084Z,100282.16
2023-04-15T17:33:01.975Z,100285.09
2023-04-15T17:35:29.425Z,100276.56
2023-04-15T17:37:56.951Z,100285.44
2023-04-15T17:40:24.334Z,100280.00
2023-04-15T17:42:52.539Z,100285.75
2023-04-15T17:45:19.851Z,100286.84
2023-04-15T17:47:48.590Z,100293.06
2023-04-15T17:50:15.970Z,100289.97
2023-04-15T17:52:44.233Z,100286.25
2023-04-15T17:55:11.883Z,100301.44
2023-04-15T17:57:39.120Z,100305.50
2023-04-15T18:00:08.845Z,100306.91
2023-04-15T18:02:40.391Z,100304.28
2023-04-15T18:05:09.731Z,100308.31
2023-04-15T18:07:37.035Z,100306.78
2023-04-15T18:10:05.411Z,100308.03
2023-04-15T18:12:32.766Z,100306.47
2023-04-15T18:15:00.325Z,100311.72
2023-04-15T18:17:27.748Z,100315.31
2023-04-15T18:19:55.233Z,100308.34
2023-04-15T18:22:24.080Z,100319.03
2023-04-15T18:24:51.392Z,100321.69
2023-04-15T18:27:18.609Z,100325.09
2023-04-15T18:29:46.502Z,100334.13
2023-04-15T18:32:13.834Z,100331.94
2023-04-15T18:34:42.327Z,100340.31
2023-04-15T18:37:09.627Z,100344.03
2023-04-15T18:39:38.288Z,100344.03
2023-04-15T18:42:05.628Z,100352.56
2023-04-15T18:44:33.031Z,100354.13
2023-04-15T18:47:00.804Z,100356.75
2023-04-15T18:49:28.141Z,100376.47
2023-04-15T18:51:55.386Z,100376.47
2023-04-15T18:54:22.649Z,100380.06
2023-04-15T18:56:51.384Z,100387.00
2023-04-15T18:59:28.950Z,100392.59
2023-04-15T19:01:58.467Z,100401.16
2023-04-15T19:04:26.032Z,100396.78
2023-04-15T19:06:53.336Z,100393.81
2023-04-15T19:09:20.660Z,100387.47
2023-04-15T19:11:48.216Z,100398.66
2023-04-15T19:14:17.058Z,100400.97
2023-04-15T19:16:44.581Z,100405.13
2023-04-15T19:19:11.916Z,100405.13
2023-04-15T19:21:39.369Z,100403.31
2023-04-15T19:24:06.906Z,100405.13
2023-04-15T19:26:34.444Z,100410.25
2023-04-15T19:29:01.615Z,100418.16
2023-04-15T19:31:30.418Z,100423.09
2023-04-15T19:33:57.746Z,100440.31
2023-04-15T19:36:25.183Z,100440.50
2023-04-15T19:38:52.836Z,100447.78
2023-04-15T19:41:20.268Z,100449.63
2023-04-15T19:43:47.552Z,100456.44
2023-04-15T19:46:14.967Z,100456.13
2023-04-15T19:48:44.860Z,100462.16
2023-04-15T19:51:12.481Z,100464.63
2023-04-15T19:53:39.840Z,100457.81
2023-04-15T19:56:07.743Z,100459.84
2023-04-15T19:58:35.064Z,100460.94
2023-04-15T20:01:02.604Z,100463.72
2023-04-15T20:03:30.655Z,100466.81
2023-04-15T20:05:59.384Z,100464.94
2023-04-15T20:08:26.734Z,100463.69
2023-04-15T20:10:54.070Z,100459.91
2023-04-15T20:13:21.294Z,100452.47
2023-04-15T20:15:48.709Z,100463.31
2023-04-15T20:18:16.269Z,100453.81
2023-04-15T20:20:43.714Z,100448.25
2023-04-15T20:23:12.599Z,100443.56
2023-04-15T20:25:40.168Z,100445.25
2023-04-15T20:28:07.528Z,100442.78
2023-04-15T20:30:34.962Z,100439.34
2023-04-15T20:33:02.262Z,100449.28
2023-04-15T20:35:29.759Z,100441.34
2023-04-15T20:37:57.076Z,100445.53
2023-04-15T20:40:25.856Z,100431.72
2023-04-15T20:42:53.096Z,100436.34
2023-04-15T20:45:20.407Z,100427.84
2023-04-15T20:47:47.809Z,100436.50
2023-04-15T20:50:15.350Z,100434.31
2023-04-15T20:52:42.720Z,100437.47
2023-04-15T20:55:10.187Z,100453.97
2023-04-15T20:57:38.891Z,100444.72
2023-04-15T21:00:07.427Z,100448.38
2023-04-15T21:02:34.719Z,100449.19
2023-04-15T21:05:02.137Z,100441.72
2023-04-15T21:07:29.463Z,100445.41
2023-04-15T21:09:56.751Z,100449.69
2023-04-15T21:12:24.138Z,100450.22
2023-04-15T21:14:52.893Z,100456.31
2023-04-15T21:17:20.183Z,100452.41
2023-04-15T21:19:47.765Z,100451.78
2023-04-15T21:22:14.967Z,100459.03
2023-04-15T21:24:42.272Z,100469.66
2023-04-15T21:27:09.804Z,100473.38
2023-04-15T21:29:37.108Z,100490.44
2023-04-15T21:32:05.925Z,100497.81
2023-04-15T21:34:33.465Z,100503.25
2023-04-15T21:37:00.796Z,100507.06
2023-04-15T21:39:28.127Z,100516.00
2023-04-15T21:41:56.371Z,100511.44
2023-04-15T21:44:23.843Z,100522.84
2023-04-15T21:46:51.595Z,100525.63
2023-04-15T21:49:20.347Z,100522.28
2023-04-15T21:51:47.874Z,100532.34
2023-04-15T21:54:15.861Z,100527.88
2023-04-15T21:56:43.054Z,100531.69
2023-04-15T21:59:10.843Z,100524.78
2023-04-15T22:01:38.532Z,100529.25
2023-04-15T22:04:06.112Z,100534.94
2023-04-15T22:06:34.852Z,100538.16
2023-04-15T22:09:02.243Z,100522.47
2023-04-15T22:11:29.813Z,100528.94
2023-04-15T22:13:57.692Z,100519.22
2023-04-15T22:16:24.983Z,100522.00
2023-04-15T22:18:52.453Z,100521.72
2023-04-15T22:21:19.639Z,100524.69
2023-04-15T22:23:49.360Z,100535.03
2023-04-15T22:26:16.753Z,100521.78
2023-04-15T22:28:44.091Z,100530.56
2023-04-15T22:31:11.350Z,100531.03
2023-04-15T22:33:38.707Z,100537.78
2023-04-15T22:36:06.498Z,100537.25
2023-04-15T22:38:33.808Z,100534.88
2023-04-15T22:41:02.486Z,100538.91
2023-04-15T22:43:29.725Z,100544.13
2023-04-15T22:45:57.018Z,100542.03
2023-04-15T22:48:24.678Z,100554.91
2023-04-15T22:50:52.035Z,100554.50
2023-04-15T22:53:19.252Z,100563.81
2023-04-15T22:55:47.279Z,100569.03
2023-04-15T22:58:16.533Z,100566.25
2023-04-15T23:00:43.860Z,100574.38
2023-04-15T23:03:11.365Z,100572.00
2023-04-15T23:05:38.875Z,100578.13
2023-04-15T23:08:06.490Z,100579.34
2023-04-15T23:10:34.032Z,100588.25
2023-04-15T23:13:01.303Z,100585.13
2023-04-15T23:15:29.874Z,100583.97
2023-04-15T23:17:57.179Z,100584.41
2023-04-15T23:20:24.591Z,100596.19
2023-04-15T23:22:51.837Z,100591.31
2023-04-15T23:25:19.037Z,100600.53
2023-04-15T23:27:46.355Z,100603.75
2023-04-15T23:30:13.591Z,100610.88
2023-04-15T23:32:42.300Z,100607.66
2023-04-15T23:35:09.723Z,100606.53
2023-04-15T23:37:37.016Z,100604.44
2023-04-15T23:40:05.486Z,100608.53
2023-04-15T23:42:32.721Z,100610.63
2023-04-15T23:44:59.910Z,100608.28
2023-04-15T23:47:27.476Z,100614.72
2023-04-15T23:49:57.068Z,100623.84
2023-04-15T23:52:24.576Z,100615.94
2023-04-15T23:54:51.938Z,100625.50
2023-04-15T23:57:19.278Z,100629.16
2023-04-15T23:59:46.493Z,100633.50
